Time;durP1;ratioP1;P1;durP2;ratioP2;P2;SDS_P1;SDS_P2;PMS_P1;PMS_P2;Temp;Humidity;BMP_temperature;BMP_pressure;BME280_temperature;BME280_humidity;BME280_pressure;Samples;Min_cycle;Max_cycle;Signal;HPM_P1;HPM_P2
2021/05/16 00:02:22;;;;;;;3.33;1.65;;;;;;;9.43;85.56;99470.88;5088833;28;20078;-73
2021/05/16 00:04:49;;;;;;;3.22;1.50;;;;;;;9.44;85.54;99464.59;5079305;28;20576;-72
2021/05/16 00:07:15;;;;;;;3.25;1.50;;;;;;;9.48;85.37;99465.91;5067637;28;20094;-73
2021/05/16 00:09:41;;;;;;;4.35;1.60;;;;;;;9.45;85.39;99455.69;5088124;28;20496;-73
2021/05/16 00:12:09;;;;;;;5.18;1.88;;;;;;;9.43;85.43;99452.41;5070213;28;20043;-73
2021/05/16 00:14:36;;;;;;;3.05;1.55;;;;;;;9.46;85.25;99458.19;5087357;28;20031;-72
2021/05/16 00:17:03;;;;;;;3.05;1.45;;;;;;;9.46;85.06;99452.06;5085192;28;20031;-73
2021/05/16 00:19:28;;;;;;;3.47;1.63;;;;;;;9.45;85.15;99459.16;5080116;28;20094;-74
2021/05/16 00:21:55;;;;;;;6.18;1.50;;;;;;;9.46;84.73;99457.31;5068193;28;20489;-72
2021/05/16 00:24:21;;;;;;;4.30;1.40;;;;;;;9.45;84.87;99460.97;5049476;28;20036;-73
2021/05/16 00:26:48;;;;;;;4.30;1.45;;;;;;;9.43;85.04;99455.84;5065554;28;20032;-73
2021/05/16 00:29:15;;;;;;;4.65;1.52;;;;;;;9.44;84.66;99449.59;5044332;28;20029;-72
2021/05/16 00:31:42;;;;;;;3.88;1.80;;;;;;;9.41;85.21;99449.09;5047111;28;20040;-73
2021/05/16 00:34:09;;;;;;;3.28;1.50;;;;;;;9.34;85.09;99448.97;5057433;28;20047;-72
2021/05/16 00:36:35;;;;;;;5.50;1.33;;;;;;;9.41;84.62;99447.28;5067812;28;20028;-73
2021/05/16 00:39:02;;;;;;;6.30;1.70;;;;;;;9.34;85.14;99444.53;5069063;28;20460;-73
2021/05/16 00:41:28;;;;;;;3.90;1.30;;;;;;;9.29;85.24;99446.81;5069376;28;20040;-73
2021/05/16 00:43:55;;;;;;;4.13;1.52;;;;;;;9.27;85.25;99453.28;5054576;28;20039;-73
2021/05/16 00:46:20;;;;;;;3.90;1.50;;;;;;;9.27;84.84;99453.28;5066656;28;20285;-72
2021/05/16 00:48:46;;;;;;;3.53;1.50;;;;;;;9.19;85.45;99448.84;5053934;28;20329;-73
2021/05/16 00:51:13;;;;;;;4.78;1.80;;;;;;;9.17;85.49;99455.28;5068077;28;20095;-72
2021/05/16 00:53:39;;;;;;;3.45;1.55;;;;;;;9.17;85.38;99444.75;5068964;28;20039;-73
2021/05/16 00:56:05;;;;;;;2.90;1.38;;;;;;;9.15;85.18;99455.44;5048482;28;20025;-73
2021/05/16 00:58:32;;;;;;;3.28;1.33;;;;;;;9.16;85.21;99445.75;5054092;28;20056;-73
2021/05/16 01:00:59;;;;;;;2.92;1.10;;;;;;;9.18;85.12;99455.13;5057500;28;20033;-73
2021/05/16 01:03:30;;;;;;;4.50;1.58;;;;;;;9.20;84.66;99449.66;5075386;28;20028;-73
2021/05/16 01:05:56;;;;;;;4.00;1.48;;;;;;;9.20;85.39;99454.94;5067261;28;20116;-73
2021/05/16 01:08:22;;;;;;;2.78;1.20;;;;;;;9.24;85.14;99448.34;5078934;28;20119;-73
2021/05/16 01:10:49;;;;;;;3.65;1.25;;;;;;;9.29;84.61;99451.28;5062436;28;20527;-73
2021/05/16 01:13:16;;;;;;;4.13;1.23;;;;;;;9.28;84.87;99449.66;5089605;28;20085;-73
2021/05/16 01:15:46;;;;;;;4.30;2.20;;;;;;;9.29;84.90;99446.81;5082304;28;20040;-72
2021/05/16 01:18:14;;;;;;;2.72;1.20;;;;;;;9.32;85.21;99443.06;5066551;28;20043;-74
2021/05/16 01:20:43;;;;;;;2.55;1.20;;;;;;;9.37;84.49;99446.00;5079465;28;20029;-73
2021/05/16 01:23:12;;;;;;;3.42;1.20;;;;;;;9.35;84.97;99437.44;5070835;28;20513;-73
2021/05/16 01:25:41;;;;;;;2.83;1.30;;;;;;;9.43;84.48;99447.94;5073012;28;20047;-73
2021/05/16 01:28:09;;;;;;;2.45;1.10;;;;;;;9.39;84.87;99444.03;5088186;28;20040;-73
2021/05/16 01:30:36;;;;;;;4.72;1.50;;;;;;;9.41;84.60;99443.81;5083309;28;20043;-73
2021/05/16 01:33:09;;;;;;;2.97;1.30;;;;;;;9.40;85.00;99439.56;5092137;28;20369;-72
2021/05/16 01:35:35;;;;;;;2.45;1.23;;;;;;;9.45;84.57;99442.50;5082895;28;20040;-73
2021/05/16 01:38:02;;;;;;;5.50;1.48;;;;;;;9.40;85.00;99452.75;5092622;28;20553;-73
2021/05/16 01:40:28;;;;;;;4.20;1.55;;;;;;;9.41;84.76;99457.84;5072723;28;20040;-72
2021/05/16 01:42:55;;;;;;;4.60;1.38;;;;;;;9.49;84.46;99451.72;5090205;28;20028;-72
2021/05/16 01:45:24;;;;;;;4.53;1.67;;;;;;;9.54;84.26;99463.41;5072427;28;20036;-72
2021/05/16 01:47:54;;;;;;;3.28;1.20;;;;;;;9.49;85.08;99455.19;5088437;28;20036;-73
2021/05/16 01:50:23;;;;;;;3.53;1.50;;;;;;;9.49;84.31;99447.28;5088618;28;20524;-72
2021/05/16 01:52:48;;;;;;;3.53;1.45;;;;;;;9.48;84.92;99455.34;5084423;28;20044;-72
2021/05/16 01:55:16;;;;;;;3.28;1.23;;;;;;;9.44;85.10;99446.97;5091672;28;20040;-73
2021/05/16 01:57:43;;;;;;;2.70;1.10;;;;;;;9.48;84.92;99444.78;5092127;28;20047;-72
2021/05/16 02:00:16;;;;;;;2.15;1.10;;;;;;;9.46;85.05;99444.13;5087827;28;20071;-73
2021/05/16 02:02:43;;;;;;;2.80;1.38;;;;;;;9.50;84.85;99443.63;5072545;28;20024;-73
2021/05/16 02:05:10;;;;;;;3.05;1.20;;;;;;;9.50;84.72;99438.34;5091100;28;20505;-73
2021/05/16 02:07:37;;;;;;;2.05;1.15;;;;;;;9.55;84.66;99440.47;5089220;28;20405;-72
2021/05/16 02:10:05;;;;;;;3.95;1.20;;;;;;;9.50;84.96;99443.63;5069734;28;20507;-72
2021/05/16 02:12:32;;;;;;;3.00;1.17;;;;;;;9.54;84.75;99442.28;5090587;28;20059;-72
2021/05/16 02:14:58;;;;;;;2.63;1.13;;;;;;;9.57;84.45;99439.31;5084921;28;20037;-73
2021/05/16 02:17:24;;;;;;;3.55;1.40;;;;;;;9.63;84.42;99442.25;5090036;28;20032;-72
2021/05/16 02:19:50;;;;;;;2.50;1.10;;;;;;;9.63;84.34;99442.25;5054965;28;20044;-72
2021/05/16 02:22:17;;;;;;;2.90;1.30;;;;;;;9.65;84.19;99434.97;5078027;28;20497;-72
2021/05/16 02:24:45;;;;;;;2.55;1.20;;;;;;;9.62;84.53;99436.16;5072578;28;20033;-73
2021/05/16 02:27:12;;;;;;;3.28;1.10;;;;;;;9.66;84.36;99441.91;5052612;28;20033;-73
2021/05/16 02:29:41;;;;;;;2.45;1.10;;;;;;;9.65;84.11;99443.72;5066307;28;20064;-72
2021/05/16 02:32:08;;;;;;;2.47;1.30;;;;;;;9.65;84.55;99443.72;5074484;28;20127;-73
2021/05/16 02:34:38;;;;;;;2.20;1.20;;;;;;;9.69;84.10;99445.03;5059410;28;20033;-72
2021/05/16 02:37:04;;;;;;;2.27;1.00;;;;;;;9.65;84.55;99435.78;5045886;28;20120;-72
2021/05/16 02:39:29;;;;;;;2.17;1.00;;;;;;;9.68;84.29;99440.75;5067950;28;20256;-72
2021/05/16 02:41:56;;;;;;;3.28;1.30;;;;;;;9.69;84.51;99438.94;5069390;28;20112;-72
2021/05/16 02:44:22;;;;;;;3.00;1.20;;;;;;;9.71;84.14;99440.41;5050849;28;20055;-72
2021/05/16 02:46:49;;;;;;;3.15;1.30;;;;;;;9.71;84.59;99442.22;5052314;28;20108;-72
2021/05/16 02:49:15;;;;;;;2.65;1.20;;;;;;;9.68;84.80;99432.03;5053297;28;20086;-72
2021/05/16 02:51:44;;;;;;;1.95;1.10;;;;;;;9.71;84.66;99429.03;5071192;28;20052;-73
2021/05/16 02:54:10;;;;;;;2.55;1.25;;;;;;;9.72;84.05;99426.19;5078607;28;20564;-71
2021/05/16 02:56:36;;;;;;;2.40;1.20;;;;;;;9.69;84.29;99426.53;5061241;28;20448;-72
2021/05/16 02:59:02;;;;;;;2.95;1.65;;;;;;;9.72;84.04;99434.13;5075048;28;20504;-72
2021/05/16 03:01:30;;;;;;;3.95;1.35;;;;;;;9.72;84.44;99430.66;5082490;28;20090;-72
2021/05/16 03:03:56;;;;;;;3.10;1.20;;;;;;;9.75;84.12;99428.50;5086743;28;20032;-72
2021/05/16 03:06:22;;;;;;;4.68;1.65;;;;;;;9.74;84.52;99433.94;5060952;28;20044;-72
2021/05/16 03:08:48;;;;;;;3.08;1.20;;;;;;;9.77;84.35;99431.81;5070744;28;20032;-72
2021/05/16 03:11:14;;;;;;;2.50;1.20;;;;;;;9.79;84.29;99427.16;5057102;28;20033;-72
2021/05/16 03:13:41;;;;;;;2.25;1.30;;;;;;;9.78;84.66;99433.44;5067387;28;20033;-72
2021/05/16 03:16:07;;;;;;;2.45;1.50;;;;;;;9.82;84.20;99427.78;5056923;28;20112;-72
2021/05/16 03:18:35;;;;;;;3.03;1.33;;;;;;;9.78;84.71;99420.22;5074082;28;20036;-72
2021/05/16 03:21:04;;;;;;;4.28;1.50;;;;;;;9.84;84.26;99423.97;5063005;28;20033;-72
2021/05/16 03:23:31;;;;;;;2.60;1.38;;;;;;;9.82;83.88;99420.72;5064399;28;20047;-72
2021/05/16 03:26:00;;;;;;;2.20;1.33;;;;;;;9.83;84.15;99424.19;5043450;28;20093;-72
2021/05/16 03:28:26;;;;;;;2.70;1.33;;;;;;;9.82;84.29;99426.00;5066204;28;20397;-72
2021/05/16 03:30:52;;;;;;;3.53;1.33;;;;;;;9.81;84.37;99419.06;5065370;28;20037;-72
2021/05/16 03:33:17;;;;;;;2.47;1.40;;;;;;;9.84;84.39;99420.53;5072508;28;20033;-72
2021/05/16 03:35:43;;;;;;;3.05;1.40;;;;;;;9.81;84.17;99421.69;5060199;28;20418;-72
2021/05/16 03:38:08;;;;;;;3.95;1.48;;;;;;;9.75;85.21;99422.41;5088018;28;20033;-72
2021/05/16 03:40:33;;;;;;;2.85;1.48;;;;;;;9.73;84.84;99416.47;5083022;28;20036;-73
2021/05/16 03:42:59;;;;;;;3.03;1.48;;;;;;;9.64;85.83;99417.50;5066026;28;20115;-73
2021/05/16 03:45:24;;;;;;;3.72;1.25;;;;;;;9.59;87.13;99414.56;5062092;28;20494;-73
2021/05/16 03:47:50;;;;;;;3.60;1.50;;;;;;;9.53;87.10;99416.06;5061648;28;20117;-74
2021/05/16 03:50:15;;;;;;;2.85;1.60;;;;;;;9.49;87.94;99418.25;5063385;28;20024;-74
2021/05/16 03:52:43;;;;;;;6.15;1.95;;;;;;;9.49;88.04;99420.88;5051084;28;20117;-74
2021/05/16 03:55:10;;;;;;;4.95;1.70;;;;;;;9.42;89.14;99425.19;5064425;28;20040;-74
2021/05/16 03:57:35;;;;;;;5.97;1.75;;;;;;;9.38;88.97;99418.63;5045343;28;20045;-75
2021/05/16 04:00:01;;;;;;;3.10;1.50;;;;;;;9.34;89.77;99414.66;5067939;28;20582;-74
2021/05/16 04:02:27;;;;;;;5.05;1.85;;;;;;;9.31;90.37;99418.47;5092158;28;20523;-73
2021/05/16 04:04:53;;;;;;;5.03;1.70;;;;;;;9.32;89.80;99419.31;5091503;28;20039;-74
2021/05/16 04:07:19;;;;;;;4.25;1.60;;;;;;;9.32;89.87;99427.22;5094661;28;20040;-74
2021/05/16 04:09:44;;;;;;;5.20;2.10;;;;;;;9.35;89.95;99426.88;5090246;28;20077;-74
2021/05/16 04:12:10;;;;;;;6.10;1.95;;;;;;;9.32;90.24;99433.31;5086728;28;20040;-74
2021/05/16 04:14:35;;;;;;;2.90;1.50;;;;;;;9.32;90.38;99429.88;5092399;28;20036;-74
2021/05/16 04:17:00;;;;;;;6.90;1.90;;;;;;;9.35;90.10;99426.88;5092592;28;20066;-74
2021/05/16 04:19:26;;;;;;;4.88;2.00;;;;;;;9.36;90.22;99436.41;5074292;28;20028;-74
2021/05/16 04:21:51;;;;;;;4.72;1.98;;;;;;;9.34;90.76;99427.84;5092402;28;20055;-74
2021/05/16 04:24:16;;;;;;;5.90;1.80;;;;;;;9.35;90.79;99435.59;5086300;28;20044;-74
2021/05/16 04:26:42;;;;;;;4.30;1.92;;;;;;;9.37;90.96;99427.53;5090457;28;20031;-74
2021/05/16 04:29:07;;;;;;;5.38;1.90;;;;;;;9.39;90.81;99429.97;5088226;28;20131;-74
2021/05/16 04:31:33;;;;;;;6.68;2.33;;;;;;;9.38;91.16;99418.63;5096964;28;20028;-74
2021/05/16 04:33:58;;;;;;;6.07;1.92;;;;;;;9.41;90.55;99415.63;5064997;28;20028;-74
2021/05/16 04:36:24;;;;;;;5.10;2.20;;;;;;;9.41;91.02;99422.72;5073694;28;20032;-74
2021/05/16 04:38:49;;;;;;;2.83;1.80;;;;;;;9.37;91.40;99424.91;5073892;28;20028;-75
2021/05/16 04:41:15;;;;;;;3.65;2.10;;;;;;;9.42;90.86;99430.47;5069351;28;20044;-74
2021/05/16 04:43:41;;;;;;;5.50;2.20;;;;;;;9.48;90.66;99434.25;5075961;28;20028;-73
2021/05/16 04:46:07;;;;;;;4.97;2.05;;;;;;;9.50;91.02;99425.16;5069956;28;20043;-74
2021/05/16 04:48:32;;;;;;;5.95;2.20;;;;;;;9.53;90.79;99430.09;5076232;28;20040;-74
2021/05/16 04:50:57;;;;;;;4.45;2.05;;;;;;;9.56;90.17;99419.19;5075790;28;20508;-74
2021/05/16 04:53:27;;;;;;;4.68;2.20;;;;;;;9.56;91.06;99421.84;5067461;28;20093;-73
2021/05/16 04:55:52;;;;;;;5.40;2.10;;;;;;;9.54;91.08;99423.00;5072835;28;20029;-74
2021/05/16 04:58:18;;;;;;;6.38;2.17;;;;;;;9.58;90.84;99419.00;5090315;28;20046;-75
2021/05/16 05:00:43;;;;;;;5.57;2.15;;;;;;;9.58;91.68;99424.28;5093503;28;20032;-74
2021/05/16 05:03:08;;;;;;;7.55;2.70;;;;;;;9.60;91.11;99429.41;5092285;28;20036;-74
2021/05/16 05:05:33;;;;;;;5.68;2.33;;;;;;;9.64;91.15;99428.88;5091953;28;20044;-74
2021/05/16 05:08:00;;;;;;;4.68;2.20;;;;;;;9.68;90.16;99429.38;5085921;28;20115;-74
2021/05/16 05:10:25;;;;;;;5.80;2.58;;;;;;;9.65;90.74;99425.25;5090743;28;20039;-74
2021/05/16 05:12:51;;;;;;;5.60;2.50;;;;;;;9.64;91.20;99428.06;5093671;28;20500;-74
2021/05/16 05:15:16;;;;;;;5.45;2.00;;;;;;;9.62;91.72;99425.59;5088941;28;20044;-75
2021/05/16 05:17:42;;;;;;;5.80;2.20;;;;;;;9.68;91.34;99426.75;5070303;28;20028;-74
2021/05/16 05:20:09;;;;;;;6.57;2.45;;;;;;;9.66;91.53;99431.38;5073109;28;20037;-75
2021/05/16 05:22:34;;;;;;;4.90;2.30;;;;;;;9.70;91.25;99430.84;5068006;28;20084;-74
2021/05/16 05:25:00;;;;;;;5.32;2.15;;;;;;;9.71;91.33;99435.13;5081915;28;20059;-74
2021/05/16 05:27:25;;;;;;;3.95;2.20;;;;;;;9.74;91.00;99431.31;5087627;28;20033;-73
2021/05/16 05:29:51;;;;;;;6.38;2.20;;;;;;;9.75;91.22;99430.34;5066458;28;20028;-74
2021/05/16 05:32:16;;;;;;;6.85;2.58;;;;;;;9.71;91.83;99429.84;5081301;28;20123;-74
2021/05/16 05:34:41;;;;;;;6.35;2.13;;;;;;;9.76;91.30;99430.13;5090009;28;20107;-74
2021/05/16 05:37:07;;;;;;;5.75;2.55;;;;;;;9.74;91.90;99428.66;5081088;28;20371;-74
2021/05/16 05:39:32;;;;;;;6.15;2.67;;;;;;;9.73;91.94;99437.59;5067603;28;20033;-74
2021/05/16 05:41:57;;;;;;;5.63;2.63;;;;;;;9.75;92.00;99441.72;5071723;28;20033;-74
2021/05/16 05:44:23;;;;;;;4.93;2.15;;;;;;;9.76;91.64;99435.41;5080217;28;20103;-74
2021/05/16 05:46:48;;;;;;;4.68;2.05;;;;;;;9.77;91.56;99438.88;5065975;28;20025;-74
2021/05/16 05:49:14;;;;;;;4.85;2.10;;;;;;;9.80;91.06;99435.91;5059772;28;20056;-74
2021/05/16 05:51:39;;;;;;;6.85;2.58;;;;;;;9.77;91.46;99434.44;5050414;28;20040;-74
2021/05/16 05:54:05;;;;;;;5.97;2.10;;;;;;;9.82;91.12;99436.56;5072057;28;20040;-73
2021/05/16 05:56:30;;;;;;;3.63;1.90;;;;;;;9.82;91.66;99441.84;5071763;28;20032;-72
2021/05/16 05:58:55;;;;;;;4.93;2.63;;;;;;;9.88;91.02;99437.66;5065293;28;20028;-73
2021/05/16 06:01:21;;;;;;;4.45;1.92;;;;;;;9.87;91.45;99444.78;5088129;28;20038;-73
2021/05/16 06:03:47;;;;;;;7.55;2.65;;;;;;;9.95;90.71;99450.00;5082199;28;20235;-73
2021/05/16 06:06:13;;;;;;;5.93;2.35;;;;;;;9.91;90.87;99442.59;5056100;28;20491;-74
2021/05/16 06:08:38;;;;;;;5.63;2.40;;;;;;;9.90;91.66;99449.69;5053475;28;20032;-72
2021/05/16 06:11:04;;;;;;;5.45;2.10;;;;;;;9.93;91.93;99445.91;5073636;28;20021;-73
2021/05/16 06:13:30;;;;;;;5.75;2.65;;;;;;;9.99;90.90;99448.66;5075824;28;20427;-74
2021/05/16 06:15:55;;;;;;;5.70;2.10;;;;;;;9.96;91.54;99456.09;5073350;28;20075;-74
2021/05/16 06:18:23;;;;;;;6.32;2.38;;;;;;;9.98;91.64;99452.28;5090572;28;20060;-72
2021/05/16 06:20:48;;;;;;;4.53;2.25;;;;;;;10.02;91.81;99455.41;5092156;28;20040;-73
2021/05/16 06:23:15;;;;;;;5.60;2.17;;;;;;;10.09;91.18;99458.19;5083473;28;20101;-73
2021/05/16 06:25:40;;;;;;;4.70;2.00;;;;;;;10.08;91.12;99457.38;5078351;28;20463;-74
2021/05/16 06:28:05;;;;;;;6.00;2.38;;;;;;;10.10;90.74;99454.53;5092224;28;20119;-73
2021/05/16 06:30:32;;;;;;;4.10;2.00;;;;;;;10.08;91.97;99453.88;5088236;28;20237;-73
2021/05/16 06:32:57;;;;;;;4.32;2.15;;;;;;;10.19;91.23;99453.50;5087866;28;20040;-73
2021/05/16 06:35:23;;;;;;;6.40;2.17;;;;;;;10.27;91.06;99458.69;5068996;28;20040;-74
2021/05/16 06:37:48;;;;;;;5.82;2.35;;;;;;;10.38;90.82;99454.88;5067966;28;20121;-74
2021/05/16 06:40:15;;;;;;;3.10;1.80;;;;;;;10.41;91.77;99457.16;5073487;28;20059;-73
2021/05/16 06:42:43;;;;;;;3.70;2.30;;;;;;;10.50;91.12;99450.00;5074232;28;20044;-73
2021/05/16 06:45:10;;;;;;;3.72;2.15;;;;;;;10.61;91.75;99446.94;5052507;28;20037;-73
2021/05/16 06:47:36;;;;;;;3.92;2.10;;;;;;;10.71;91.12;99441.41;5076369;28;20060;-74
2021/05/16 06:50:01;;;;;;;5.82;2.30;;;;;;;10.74;90.37;99441.03;5088824;28;20496;-74
2021/05/16 06:52:26;;;;;;;4.65;2.03;;;;;;;10.80;90.48;99445.59;5070589;28;20040;-72
2021/05/16 06:54:52;;;;;;;6.00;2.30;;;;;;;10.78;90.14;99453.72;5090644;28;20032;-75
2021/05/16 06:57:18;;;;;;;7.45;3.08;;;;;;;10.69;90.65;99457.44;5086901;28;20044;-74
2021/05/16 06:59:45;;;;;;;5.80;2.20;;;;;;;10.64;91.04;99457.13;5068524;28;20029;-73
2021/05/16 07:02:10;;;;;;;3.78;1.95;;;;;;;10.65;90.77;99452.66;5069096;28;20123;-74
2021/05/16 07:04:35;;;;;;;4.53;2.13;;;;;;;10.62;91.02;99459.94;5073727;28;20125;-72
2021/05/16 07:07:01;;;;;;;6.55;2.33;;;;;;;10.68;90.42;99449.66;5069252;28;20086;-72
2021/05/16 07:09:27;;;;;;;4.78;2.28;;;;;;;10.65;90.58;99457.97;5066938;28;20046;-74
2021/05/16 07:11:52;;;;;;;4.97;1.95;;;;;;;10.73;90.41;99455.25;5065834;28;20044;-73
2021/05/16 07:14:18;;;;;;;4.90;2.10;;;;;;;10.80;90.33;99457.00;5067747;28;20033;-74
2021/05/16 07:16:43;;;;;;;5.53;2.30;;;;;;;10.87;90.28;99446.53;5071649;28;20032;-73
2021/05/16 07:19:08;;;;;;;4.82;2.88;;;;;;;10.88;89.88;99452.63;5067160;28;20512;-72
2021/05/16 07:21:34;;;;;;;4.45;2.00;;;;;;;10.97;91.77;99451.56;5065227;28;20036;-72
2021/05/16 07:24:00;;;;;;;4.28;2.08;;;;;;;11.18;90.59;99456.13;5068482;28;20032;-73
2021/05/16 07:26:25;;;;;;;4.55;1.83;;;;;;;11.31;89.54;99461.59;5059113;28;20079;-71
2021/05/16 07:28:50;;;;;;;6.10;2.33;;;;;;;11.35;88.51;99456.78;5065616;28;20048;-73
2021/05/16 07:31:16;;;;;;;6.88;2.15;;;;;;;11.36;89.94;99453.13;5076106;28;20043;-72
2021/05/16 07:33:42;;;;;;;3.80;1.60;;;;;;;11.67;88.99;99448.41;5050552;28;20389;-73
2021/05/16 07:36:08;;;;;;;4.05;1.60;;;;;;;11.87;88.44;99450.53;5077528;28;20044;-74
2021/05/16 07:38:33;;;;;;;3.65;1.60;;;;;;;12.70;86.70;99443.78;5075728;28;20051;-74
2021/05/16 07:40:58;;;;;;;4.35;1.33;;;;;;;13.33;83.22;99448.31;5093049;28;20564;-75
2021/05/16 07:43:25;;;;;;;4.20;1.42;;;;;;;13.52;81.75;99446.78;5092227;28;20067;-72
2021/05/16 07:45:51;;;;;;;3.28;1.13;;;;;;;13.71;81.33;99453.19;5094638;28;20043;-74
2021/05/16 07:48:17;;;;;;;5.18;1.40;;;;;;;13.51;79.43;99450.44;5092633;28;20063;-75
2021/05/16 07:50:43;;;;;;;4.00;1.13;;;;;;;13.45;81.90;99453.88;5096335;28;20586;-74
2021/05/16 07:53:08;;;;;;;3.13;1.13;;;;;;;13.17;81.16;99441.44;5071764;28;20044;-73
2021/05/16 07:55:34;;;;;;;3.90;1.10;;;;;;;13.20;82.11;99442.88;5078771;28;20032;-73
2021/05/16 07:57:59;;;;;;;4.45;1.38;;;;;;;13.45;81.58;99440.59;5094851;28;20124;-73
2021/05/16 08:00:24;;;;;;;2.13;0.90;;;;;;;14.60;79.07;99438.88;5080825;28;20040;-74
2021/05/16 08:02:50;;;;;;;3.92;1.27;;;;;;;15.61;75.31;99437.63;5087463;28;20120;-77
2021/05/16 08:05:15;;;;;;;4.38;1.17;;;;;;;15.98;69.96;99437.91;5088588;28;20044;-74
2021/05/16 08:07:41;;;;;;;4.85;1.20;;;;;;;16.33;70.43;99443.66;5076783;28;20489;-75
2021/05/16 08:10:07;;;;;;;3.50;1.20;;;;;;;16.38;69.38;99441.16;5069974;28;20520;-74
2021/05/16 08:12:33;;;;;;;5.47;1.00;;;;;;;16.06;70.14;99443.78;5076962;28;20062;-74
2021/05/16 08:14:59;;;;;;;2.75;1.10;;;;;;;15.87;70.25;99442.06;5076208;28;20036;-74
2021/05/16 08:17:24;;;;;;;3.08;1.30;;;;;;;15.48;71.73;99447.31;5074699;28;20057;-73
2021/05/16 08:19:49;;;;;;;3.28;1.20;;;;;;;15.03;77.03;99425.91;5088992;28;20028;-74
2021/05/16 08:22:15;;;;;;;5.45;1.40;;;;;;;14.62;77.15;99440.28;5102683;28;20043;-73
2021/05/16 08:24:40;;;;;;;3.63;1.10;;;;;;;14.26;75.98;99432.69;5106796;28;20237;-73
2021/05/16 08:27:06;;;;;;;3.45;1.20;;;;;;;14.03;75.44;99431.19;5108961;28;20099;-74
2021/05/16 08:29:35;;;;;;;4.82;1.48;;;;;;;13.88;78.31;99414.59;5085263;28;20035;-73
2021/05/16 08:32:00;;;;;;;4.93;1.30;;;;;;;13.55;80.14;99425.13;5098758;28;20054;-73
2021/05/16 08:34:26;;;;;;;3.80;0.90;;;;;;;13.36;78.82;99424.00;5103195;28;20032;-72
2021/05/16 08:36:51;;;;;;;2.92;1.17;;;;;;;13.24;79.69;99423.72;5108131;28;20032;-74
2021/05/16 08:39:16;;;;;;;4.15;1.33;;;;;;;13.15;78.95;99416.91;5102562;28;20085;-73
2021/05/16 08:41:42;;;;;;;4.53;1.30;;;;;;;13.38;78.62;99422.78;5100837;28;20032;-73
2021/05/16 08:44:07;;;;;;;4.63;1.40;;;;;;;14.11;78.53;99422.22;5082658;28;20212;-75
2021/05/16 08:46:33;;;;;;;4.65;1.38;;;;;;;15.37;73.98;99417.84;5083488;28;20048;-72
2021/05/16 08:48:58;;;;;;;8.02;1.77;;;;;;;16.18;71.07;99409.25;5084847;28;20120;-73
2021/05/16 08:51:23;;;;;;;4.55;1.40;;;;;;;15.84;72.85;99418.50;5094594;28;20036;-73
2021/05/16 08:53:50;;;;;;;4.88;1.27;;;;;;;15.23;71.48;99417.06;5104181;28;20138;-74
2021/05/16 08:56:15;;;;;;;3.78;1.20;;;;;;;14.83;73.03;99425.16;5084875;28;20068;-75
2021/05/16 08:58:41;;;;;;;5.20;1.40;;;;;;;14.64;71.69;99424.13;5090677;28;20037;-73
2021/05/16 09:01:26;;;;;;;4.82;1.35;;;;;;;14.44;71.84;99427.59;5107622;28;20043;-74
2021/05/16 09:03:52;;;;;;;5.75;1.75;;;;;;;14.21;72.80;99433.28;5079703;28;20040;-74
2021/05/16 09:06:17;;;;;;;6.03;1.48;;;;;;;14.00;75.92;99425.47;5081410;28;20048;-74
2021/05/16 09:08:43;;;;;;;8.30;1.70;;;;;;;14.00;74.56;99422.81;5080572;28;20028;-73
2021/05/16 09:11:09;;;;;;;4.93;1.50;;;;;;;13.91;77.96;99421.34;5062843;28;20040;-73
2021/05/16 09:13:42;;;;;;;4.53;1.40;;;;;;;14.12;77.05;99426.50;5085291;28;20085;-73
2021/05/16 09:16:18;;;;;;;4.82;1.52;;;;;;;14.64;76.26;99419.63;5087710;28;20040;-74
2021/05/16 09:18:53;;;;;;;5.45;1.60;;;;;;;15.62;70.83;99412.63;5055648;28;20037;-73
2021/05/16 09:21:32;;;;;;;6.60;1.48;;;;;;;15.35;73.09;99415.41;5075478;28;20036;-73
2021/05/16 09:24:04;;;;;;;3.58;1.33;;;;;;;15.57;72.63;99420.44;5081105;28;20333;-73
2021/05/16 09:26:38;;;;;;;5.40;1.45;;;;;;;15.68;73.19;99419.78;5102422;28;20036;-73
2021/05/16 09:29:41;;;;;;;4.88;1.33;;;;;;;15.22;76.07;99418.91;5079450;28;20032;-72
2021/05/16 09:32:08;;;;;;;5.38;1.40;;;;;;;14.70;74.58;99422.47;5094843;28;20074;-74
2021/05/16 09:34:34;;;;;;;6.65;1.45;;;;;;;14.18;79.12;99423.06;5097352;28;20036;-74
2021/05/16 09:37:01;;;;;;;4.13;1.30;;;;;;;13.94;77.33;99415.63;5077188;28;20485;-75
2021/05/16 09:39:31;;;;;;;4.30;1.50;;;;;;;13.90;78.33;99411.75;5075237;28;20058;-75
2021/05/16 09:42:07;;;;;;;5.00;1.40;;;;;;;14.17;80.07;99415.28;5079818;28;20036;-76
2021/05/16 09:44:34;;;;;;;3.20;0.90;;;;;;;14.74;76.28;99407.75;5097806;28;20032;-73
2021/05/16 09:47:14;;;;;;;5.18;1.52;;;;;;;14.77;75.84;99402.81;5077201;28;20044;-73
2021/05/16 09:49:42;;;;;;;5.03;1.40;;;;;;;15.16;76.17;99400.28;5080742;28;20040;-73
2021/05/16 09:52:09;;;;;;;6.38;1.20;;;;;;;15.79;75.40;99389.00;5087455;28;20516;-74
2021/05/16 09:55:04;;;;;;;7.53;1.60;;;;;;;16.28;68.93;99393.63;5084694;28;20051;-73
2021/05/16 09:57:38;;;;;;;5.93;1.50;;;;;;;16.03;67.67;99384.75;5083892;28;20032;-73
2021/05/16 10:00:12;;;;;;;3.95;1.30;;;;;;;15.60;66.90;99380.88;5061135;28;20525;-73
2021/05/16 10:02:38;;;;;;;5.18;1.33;;;;;;;15.37;70.14;99378.69;5062761;28;20036;-73
2021/05/16 10:05:07;;;;;;;6.95;1.42;;;;;;;15.38;69.13;99385.69;5087921;28;20028;-72
2021/05/16 10:07:32;;;;;;;3.95;1.10;;;;;;;15.22;73.36;99380.81;5091579;28;20496;-73
2021/05/16 10:09:58;;;;;;;4.15;1.38;;;;;;;15.01;74.03;99377.38;5091801;28;20047;-73
2021/05/16 10:12:24;;;;;;;5.43;1.30;;;;;;;14.79;70.55;99381.34;5057109;28;20439;-72
2021/05/16 10:15:01;;;;;;;4.88;1.40;;;;;;;14.57;78.00;99383.41;5071639;28;20353;-73
2021/05/16 10:17:26;;;;;;;5.22;1.50;;;;;;;14.63;71.97;99367.47;5070239;28;20028;-73
2021/05/16 10:19:53;;;;;;;4.38;1.30;;;;;;;14.75;75.45;99396.06;5063375;28;20036;-72
2021/05/16 10:22:18;;;;;;;6.03;1.45;;;;;;;14.81;77.46;99393.41;5071085;28;20032;-73
2021/05/16 10:24:46;;;;;;;4.25;1.20;;;;;;;14.55;78.10;99386.28;5071662;28;20021;-73
2021/05/16 10:27:19;;;;;;;3.28;1.25;;;;;;;14.30;76.06;99388.72;5062555;28;20401;-75
2021/05/16 10:30:05;;;;;;;5.47;1.30;;;;;;;14.70;81.24;99382.56;5053129;28;20386;-73
2021/05/16 10:32:35;;;;;;;3.42;1.50;;;;;;;15.15;76.07;99372.84;5072699;28;20492;-73
2021/05/16 10:35:07;;;;;;;2.30;0.90;;;;;;;15.37;75.20;99361.91;5091073;28;20106;-74
2021/05/16 10:37:53;;;;;;;3.00;1.00;;;;;;;15.63;72.86;99360.97;5090471;28;20089;-73
2021/05/16 10:40:30;;;;;;;3.85;1.20;;;;;;;16.00;72.65;99355.88;5091624;28;20036;-73
2021/05/16 10:43:25;;;;;;;8.50;1.95;;;;;;;16.49;68.40;99340.88;5084479;28;20515;-72
2021/05/16 10:45:50;;;;;;;5.13;2.25;;;;;;;16.68;70.36;99345.22;5091376;28;20131;-72
2021/05/16 10:48:17;;;;;;;6.82;1.55;;;;;;;16.76;61.14;99330.78;5088221;28;20127;-73
2021/05/16 10:50:57;;;;;;;4.40;1.40;;;;;;;16.56;60.91;99336.31;5087968;28;20093;-72
2021/05/16 10:53:31;;;;;;;4.05;1.15;;;;;;;16.05;64.24;99345.38;5084028;28;20056;-73
2021/05/16 10:56:20;;;;;;;5.60;1.38;;;;;;;15.55;65.41;99355.91;5084458;28;20040;-72
2021/05/16 10:58:48;;;;;;;3.30;0.80;;;;;;;14.94;66.35;99349.16;5070682;28;20036;-72
2021/05/16 11:01:33;;;;;;;3.65;1.00;;;;;;;14.21;70.90;99350.84;5081500;28;20089;-72
2021/05/16 11:04:00;;;;;;;2.38;0.90;;;;;;;13.90;73.44;99350.63;5069261;28;20035;-71
2021/05/16 11:06:38;;;;;;;3.78;1.08;;;;;;;14.19;70.75;99350.25;5075502;28;20033;-72
2021/05/16 11:09:04;;;;;;;5.00;1.38;;;;;;;14.55;73.47;99350.88;5065270;28;20401;-73
2021/05/16 11:11:34;;;;;;;4.43;1.25;;;;;;;14.82;72.68;99331.16;5069966;28;20056;-71
2021/05/16 11:14:00;;;;;;;2.50;0.95;;;;;;;15.08;73.16;99329.44;5084491;28;20040;-70
2021/05/16 11:16:26;;;;;;;2.53;1.05;;;;;;;15.47;71.57;99335.66;5080124;28;20037;-71
2021/05/16 11:18:51;;;;;;;1.77;0.80;;;;;;;15.68;73.79;99334.50;5070281;28;20028;-71
2021/05/16 11:21:17;;;;;;;3.83;1.52;;;;;;;16.05;69.28;99330.19;5064813;28;20067;-71
2021/05/16 11:23:46;;;;;;;4.43;1.42;;;;;;;16.19;70.48;99320.22;5044989;28;20047;-70
2021/05/16 11:26:14;;;;;;;2.00;1.02;;;;;;;16.30;70.59;99324.84;5066046;28;20127;-71
2021/05/16 11:28:49;;;;;;;3.95;1.02;;;;;;;16.55;68.93;99308.00;5064347;28;20071;-71
2021/05/16 11:31:19;;;;;;;3.47;1.10;;;;;;;16.73;71.97;99308.03;5046703;28;20067;-70
2021/05/16 11:33:47;;;;;;;3.60;1.00;;;;;;;16.93;67.20;99309.69;5066290;28;20127;-70
2021/05/16 11:36:16;;;;;;;2.72;0.95;;;;;;;17.11;74.88;99295.47;5046572;28;20041;-70
2021/05/16 11:38:47;;;;;;;3.85;1.08;;;;;;;17.28;72.61;99298.34;5069173;28;20036;-70
2021/05/16 11:41:45;;;;;;;;;;;;;;;17.16;71.29;99290.28;5074926;28;20043;-70